Time;durP1;ratioP1;P1;durP2;ratioP2;P2;SDS_P1;SDS_P2;PMS_P1;PMS_P2;Temp;Humidity;BMP_temperature;BMP_pressure;BME280_temperature;BME280_humidity;BME280_pressure;Samples;Min_cycle;Max_cycle;Signal;HPM_P1;HPM_P2
2021/12/05 00:17:41;;;;;;;8.98;6.70;;;;;;;3.18;85.35;97049.56;6187806;23;20016;-86
2021/12/05 00:23:12;;;;;;;9.35;6.35;;;;;;;3.13;85.28;97047.66;6189491;23;20064;-85
2021/12/05 00:25:54;;;;;;;9.17;6.47;;;;;;;3.20;85.05;97069.38;6186333;23;20396;-84
2021/12/05 00:31:12;;;;;;;9.23;6.25;;;;;;;3.18;85.26;97074.09;6187423;23;20428;-84
2021/12/05 00:33:56;;;;;;;8.18;6.03;;;;;;;3.20;85.34;97072.00;6207709;23;20031;-86
2021/12/05 00:58:31;;;;;;;12.38;6.13;;;;;;;3.06;84.48;97089.22;6187144;23;20009;-83
2021/12/05 01:01:21;;;;;;;12.60;8.02;;;;;;;3.12;84.45;97104.06;6146993;23;20009;-83
2021/12/05 01:12:10;;;;;;;9.63;5.03;;;;;;;3.16;84.53;97107.00;6198576;23;20009;-84
2021/12/05 01:15:24;;;;;;;9.35;4.88;;;;;;;3.15;84.47;97105.41;6168196;23;20009;-84
2021/12/05 01:17:28;;;;;;;7.22;5.68;;;;;;;3.00;84.08;97091.00;6168048;23;20012;-84
2021/12/05 01:19:55;;;;;;;9.75;5.25;;;;;;;3.14;84.25;97109.09;6164397;23;20455;-84
2021/12/05 01:22:22;;;;;;;10.07;5.10;;;;;;;3.15;84.42;97113.31;6143877;23;20016;-84
2021/12/05 01:27:45;;;;;;;8.32;4.93;;;;;;;3.06;84.28;97099.75;6201730;23;20005;-84
2021/12/05 01:30:19;;;;;;;8.13;4.88;;;;;;;3.16;84.23;97107.00;6191822;23;20013;-84
2021/12/05 01:33:11;;;;;;;16.20;6.60;;;;;;;3.12;84.14;97108.53;6142551;23;20019;-84
2021/12/05 01:51:50;;;;;;;10.80;5.47;;;;;;;3.11;84.32;97107.75;6177244;23;20009;-86
2021/12/05 02:10:51;;;;;;;16.23;7.30;;;;;;;3.15;84.14;97126.50;6168175;23;20019;-86
2021/12/05 02:42:37;;;;;;;13.05;8.77;;;;;;;3.12;84.55;97159.44;6137642;23;20013;-83
2021/12/05 02:45:09;;;;;;;11.15;7.95;;;;;;;3.03;83.80;97142.41;6160193;23;20091;-85
2021/12/05 02:47:37;;;;;;;15.85;9.23;;;;;;;2.93;84.29;97137.00;6159666;23;20020;-86
2021/12/05 02:50:07;;;;;;;15.52;9.25;;;;;;;2.98;84.12;97156.31;6159179;23;20001;-85
2021/12/05 02:52:38;;;;;;;12.80;8.13;;;;;;;3.08;84.02;97162.78;6136713;23;20016;-83
2021/12/05 02:55:11;;;;;;;17.38;8.55;;;;;;;2.98;84.11;97152.88;6142524;23;20116;-86
2021/12/05 03:00:15;;;;;;;12.35;8.80;;;;;;;3.04;84.02;97168.53;6197092;23;20444;-84
2021/12/05 03:02:46;;;;;;;13.63;9.85;;;;;;;3.11;83.77;97184.16;6185996;23;20005;-84
2021/12/05 03:05:16;;;;;;;15.98;9.38;;;;;;;2.98;83.68;97166.88;6187238;23;20008;-84
2021/12/05 03:07:46;;;;;;;15.73;9.32;;;;;;;3.08;83.55;97183.88;6210376;23;20083;-84
2021/12/05 03:10:16;;;;;;;13.60;7.85;;;;;;;3.09;83.83;97180.97;6210476;23;20021;-83
2021/12/05 03:12:44;;;;;;;11.93;8.70;;;;;;;3.10;84.28;97184.41;6185776;23;20084;-84
2021/12/05 03:15:13;;;;;;;11.60;7.57;;;;;;;3.07;84.18;97184.88;6186452;23;20021;-85
2021/12/05 03:17:41;;;;;;;16.23;8.85;;;;;;;3.08;83.83;97182.00;6161218;23;20039;-85
2021/12/05 03:20:09;;;;;;;14.07;9.10;;;;;;;3.11;83.87;97189.44;6210279;23;20060;-85
2021/12/05 03:22:35;;;;;;;15.25;9.00;;;;;;;3.10;84.00;97200.22;6185650;23;20036;-84
2021/12/05 03:25:01;;;;;;;12.63;8.43;;;;;;;2.75;84.01;97163.59;6186223;23;20383;-84
2021/12/05 03:27:27;;;;;;;13.50;7.93;;;;;;;3.11;83.94;97204.44;6216416;23;19997;-85
2021/12/05 03:29:52;;;;;;;12.70;7.38;;;;;;;3.04;83.73;97201.97;6197411;23;20005;-83
2021/12/05 03:32:18;;;;;;;19.58;8.55;;;;;;;3.03;83.82;97209.09;6195469;23;20024;-84
2021/12/05 03:34:43;;;;;;;13.00;8.18;;;;;;;3.06;84.20;97212.31;6195486;23;20009;-83
2021/12/05 03:37:11;;;;;;;12.55;7.95;;;;;;;2.85;84.11;97185.63;6220721;23;20008;-83
2021/12/05 03:39:37;;;;;;;18.92;8.00;;;;;;;2.89;83.82;97184.09;6174953;23;20008;-83
2021/12/05 03:42:05;;;;;;;16.45;6.72;;;;;;;3.10;83.99;97216.84;6216372;23;20005;-83
2021/12/05 03:44:34;;;;;;;10.35;6.30;;;;;;;3.13;84.08;97232.16;6189367;23;20012;-82
2021/12/05 03:47:01;;;;;;;15.13;8.02;;;;;;;3.15;84.03;97243.25;6189022;23;20005;-83
2021/12/05 03:49:28;;;;;;;11.75;7.38;;;;;;;3.15;83.99;97243.25;6188832;23;20487;-83
2021/12/05 03:51:57;;;;;;;12.65;6.97;;;;;;;3.15;83.57;97251.19;6189105;23;20075;-83
2021/12/05 03:54:24;;;;;;;12.15;7.35;;;;;;;2.91;84.33;97211.00;6189571;23;20009;-82
2021/12/05 03:56:51;;;;;;;10.75;6.38;;;;;;;3.07;83.80;97238.41;6163517;23;20448;-82
2021/12/05 03:59:18;;;;;;;14.85;6.85;;;;;;;2.96;83.80;97219.00;6172969;23;20059;-83
2021/12/05 04:01:44;;;;;;;12.30;6.30;;;;;;;2.95;83.67;97224.50;6172799;23;20008;-83
2021/12/05 04:04:11;;;;;;;10.52;6.45;;;;;;;3.10;83.91;97252.94;6174732;23;20012;-82
2021/12/05 04:06:38;;;;;;;9.65;6.07;;;;;;;2.93;83.65;97222.09;6167197;23;20009;-84
2021/12/05 04:09:08;;;;;;;9.65;6.78;;;;;;;3.18;83.59;97265.72;6160717;23;20073;-85
2021/12/05 04:11:38;;;;;;;8.80;5.55;;;;;;;3.18;83.77;97268.34;6135897;23;20009;-85
2021/12/05 04:14:08;;;;;;;7.13;5.22;;;;;;;3.17;83.77;97270.19;6139031;23;20024;-85
2021/12/05 04:16:35;;;;;;;11.55;6.20;;;;;;;3.18;83.56;97265.72;6140654;23;20004;-86
2021/12/05 04:19:00;;;;;;;11.70;5.78;;;;;;;2.95;83.77;97235.84;6189799;23;20005;-85
2021/12/05 04:21:26;;;;;;;13.25;4.93;;;;;;;2.93;83.45;97230.00;6140509;23;20027;-83
2021/12/05 04:23:51;;;;;;;10.68;4.70;;;;;;;3.17;83.91;97261.50;6201393;23;20016;-84
2021/12/05 04:26:18;;;;;;;13.77;5.18;;;;;;;2.76;83.52;97205.50;6202107;23;20341;-84
2021/12/05 04:28:43;;;;;;;8.85;4.25;;;;;;;2.49;83.61;97167.66;6202482;23;20132;-84
2021/12/05 04:31:10;;;;;;;8.18;4.70;;;;;;;3.13;83.55;97263.78;6202896;23;20001;-85
2021/12/05 04:33:36;;;;;;;10.50;5.18;;;;;;;2.74;83.63;97199.69;6151873;23;20061;-85
2021/12/05 04:36:03;;;;;;;8.00;4.82;;;;;;;2.55;83.24;97173.81;6151622;23;20005;-84
2021/12/05 04:38:29;;;;;;;9.25;4.32;;;;;;;2.89;83.30;97239.44;6176376;23;20068;-83
2021/12/05 04:40:54;;;;;;;6.07;4.57;;;;;;;2.38;82.92;97165.88;6176825;23;20016;-84
2021/12/05 04:43:20;;;;;;;8.00;4.63;;;;;;;2.51;82.96;97186.63;6152590;23;20016;-83
2021/12/05 04:45:45;;;;;;;14.60;5.03;;;;;;;2.99;83.08;97273.84;6151572;23;20008;-86
2021/12/05 04:48:14;;;;;;;8.50;4.75;;;;;;;2.99;83.27;97275.72;6196582;23;20013;-84
2021/12/05 04:50:40;;;;;;;10.82;4.45;;;;;;;2.73;82.55;97245.47;6170613;23;20005;-83
2021/12/05 04:53:07;;;;;;;15.07;4.93;;;;;;;2.94;83.15;97286.97;6171456;23;20005;-85
2021/12/05 04:55:32;;;;;;;7.53;4.32;;;;;;;2.91;82.89;97290.06;6195444;23;20068;-84
2021/12/05 04:57:58;;;;;;;7.38;4.25;;;;;;;2.94;82.77;97292.22;6161785;23;20348;-86
2021/12/05 05:00:32;;;;;;;10.38;4.60;;;;;;;2.91;82.62;97292.69;6137202;23;20014;-86
2021/12/05 05:02:58;;;;;;;10.13;4.32;;;;;;;2.66;82.89;97255.38;6187326;23;20016;-87
2021/12/05 05:05:28;;;;;;;8.13;4.20;;;;;;;2.85;82.62;97296.28;6137845;23;20083;-85
2021/12/05 05:07:54;;;;;;;6.28;3.75;;;;;;;2.84;82.76;97288.63;6136751;23;20016;-85
2021/12/05 05:10:24;;;;;;;5.50;4.22;;;;;;;2.78;83.26;97290.34;6137150;23;20084;-85
2021/12/05 05:12:50;;;;;;;5.68;3.75;;;;;;;2.84;83.06;97299.16;6111494;23;20523;-86
2021/12/05 05:15:21;;;;;;;10.45;4.28;;;;;;;2.83;82.78;97298.34;6186066;23;20051;-85
2021/12/05 05:17:49;;;;;;;13.75;4.13;;;;;;;2.82;82.83;97291.47;6159495;23;20096;-81
2021/12/05 05:20:24;;;;;;;7.93;3.92;;;;;;;2.70;82.62;97285.47;6187238;23;20058;-81
2021/12/05 05:30:46;;;;;;;6.60;4.00;;;;;;;2.81;83.51;97310.97;6161480;23;20013;-84
2021/12/05 05:46:53;;;;;;;6.90;3.92;;;;;;;2.80;83.38;97304.09;6187896;23;20399;-84
2021/12/05 05:49:34;;;;;;;8.63;4.05;;;;;;;2.86;83.59;97300.50;6164649;23;20013;-84
2021/12/05 05:52:00;;;;;;;5.95;4.75;;;;;;;2.84;83.26;97315.75;6138099;23;20020;-84
2021/12/05 05:54:26;;;;;;;7.65;3.90;;;;;;;2.68;83.47;97289.38;6185682;23;20001;-84
2021/12/05 05:57:00;;;;;;;6.43;3.65;;;;;;;2.87;83.59;97309.22;6159498;23;20116;-84
2021/12/05 05:59:39;;;;;;;9.73;3.78;;;;;;;2.82;83.28;97298.56;6135189;23;20001;-84
2021/12/05 06:04:33;;;;;;;14.38;4.10;;;;;;;2.89;83.75;97307.94;6159402;23;20009;-84
2021/12/05 06:06:58;;;;;;;11.20;4.38;;;;;;;2.66;83.83;97268.56;6133415;23;20056;-83
2021/12/05 06:09:24;;;;;;;7.75;3.47;;;;;;;2.89;83.61;97302.66;6135052;23;20017;-84
2021/12/05 06:11:49;;;;;;;12.27;3.67;;;;;;;2.89;83.50;97301.88;6135154;23;20013;-84
2021/12/05 06:14:14;;;;;;;8.48;3.35;;;;;;;2.89;83.54;97300.03;6134940;23;20079;-83
2021/12/05 06:16:40;;;;;;;10.77;3.28;;;;;;;2.89;83.69;97299.22;6135608;23;20025;-84
2021/12/05 06:19:05;;;;;;;8.00;3.30;;;;;;;2.80;83.40;97296.19;6136060;23;20008;-83
2021/12/05 06:21:31;;;;;;;7.38;3.80;;;;;;;2.86;83.11;97302.38;6135353;23;20007;-82
2021/12/05 06:23:56;;;;;;;18.75;4.03;;;;;;;2.74;83.16;97277.91;6186491;23;20012;-83
2021/12/05 06:26:23;;;;;;;4.50;3.00;;;;;;;2.86;83.29;97289.97;6159163;23;20028;-83
2021/12/05 06:37:13;;;;;;;12.80;3.90;;;;;;;2.68;82.78;97311.25;6190398;23;20016;-85
2021/12/05 06:39:49;;;;;;;8.18;2.97;;;;;;;2.68;82.46;97321.78;6173500;23;20009;-86
2021/12/05 06:47:42;;;;;;;7.15;2.58;;;;;;;2.72;82.67;97330.81;6174949;23;20037;-84
2021/12/05 06:50:07;;;;;;;6.13;3.35;;;;;;;2.60;82.97;97318.75;6146210;23;20021;-84
2021/12/05 06:52:33;;;;;;;5.82;3.53;;;;;;;2.65;83.21;97324.09;6171548;23;20027;-84
2021/12/05 06:54:58;;;;;;;8.88;3.38;;;;;;;2.71;83.00;97336.34;6175221;23;20009;-84
2021/12/05 06:57:24;;;;;;;11.23;3.50;;;;;;;2.74;82.99;97339.28;6219976;23;20028;-84
2021/12/05 06:59:49;;;;;;;9.18;3.05;;;;;;;2.71;83.02;97341.59;6145510;23;20012;-84
2021/12/05 07:02:17;;;;;;;7.85;3.38;;;;;;;2.66;82.78;97338.88;6194139;23;20005;-84
2021/12/05 07:07:29;;;;;;;9.60;3.25;;;;;;;2.61;83.12;97333.50;6192915;23;20015;-85
2021/12/05 07:09:55;;;;;;;7.15;3.47;;;;;;;2.48;83.29;97323.22;6191621;23;20009;-84
2021/12/05 07:15:24;;;;;;;10.10;3.63;;;;;;;2.62;82.88;97364.84;6193799;23;20066;-84
2021/12/05 07:26:14;;;;;;;6.13;3.17;;;;;;;2.69;82.83;97402.41;6190811;23;20013;-84
2021/12/05 07:42:23;;;;;;;8.10;3.72;;;;;;;2.66;83.09;97408.16;6184782;23;20136;-81
2021/12/05 07:44:54;;;;;;;16.85;3.55;;;;;;;2.50;83.01;97389.63;6183743;23;20012;-80
2021/12/05 07:47:23;;;;;;;10.68;3.50;;;;;;;2.64;83.18;97410.22;6157957;23;20008;-80
2021/12/05 07:49:49;;;;;;;14.13;3.30;;;;;;;2.60;83.20;97403.00;6185562;23;20317;-80
2021/12/05 07:52:19;;;;;;;10.65;3.15;;;;;;;2.65;83.09;97414.44;6183867;23;20005;-79
2021/12/05 07:54:55;;;;;;;6.10;3.28;;;;;;;2.64;82.87;97406.78;6182697;23;20016;-80
2021/12/05 07:57:40;;;;;;;7.63;2.83;;;;;;;2.62;82.98;97414.13;6186782;23;20001;-79
2021/12/05 08:00:17;;;;;;;11.30;3.13;;;;;;;2.61;83.17;97417.75;6187357;23;20028;-82
2021/12/05 08:16:31;;;;;;;7.95;2.95;;;;;;;2.57;82.86;97448.25;6188624;23;20044;-86
2021/12/05 08:18:56;;;;;;;11.15;3.38;;;;;;;2.60;83.13;97453.06;6161549;23;20013;-84
2021/12/05 08:21:23;;;;;;;9.32;2.92;;;;;;;2.66;83.30;97460.81;6182774;23;20078;-85
2021/12/05 08:23:50;;;;;;;9.27;3.63;;;;;;;2.54;83.27;97440.78;6186578;23;20009;-83
2021/12/05 08:26:29;;;;;;;13.55;3.10;;;;;;;2.68;83.48;97465.84;6190707;23;20012;-82
2021/12/05 08:31:41;;;;;;;4.88;2.65;;;;;;;2.69;82.95;97462.97;6199129;23;20013;-83
2021/12/05 08:41:58;;;;;;;8.07;3.00;;;;;;;2.72;83.22;97483.59;6195928;23;20139;-80
2021/12/05 09:38:38;;;;;;;5.05;2.97;;;;;;;2.72;82.88;97512.56;6081143;23;20393;-83
2021/12/05 10:19:14;;;;;;;5.25;2.10;;;;;;;3.21;82.20;97540.19;6157023;23;20150;-83
2021/12/05 10:38:20;;;;;;;10.90;3.00;;;;;;;3.30;82.64;97559.88;6159373;23;20092;-82
2021/12/05 10:43:46;;;;;;;7.50;2.95;;;;;;;3.28;82.51;97558.50;6182444;23;20009;-84
2021/12/05 10:46:14;;;;;;;13.27;3.42;;;;;;;3.35;82.91;97564.47;6134455;23;20005;-82
2021/12/05 10:48:42;;;;;;;8.30;2.58;;;;;;;3.38;82.38;97570.09;6140714;23;20017;-84
2021/12/05 10:51:27;;;;;;;8.43;2.42;;;;;;;3.40;82.52;97572.47;6142296;23;20062;-84
2021/12/05 10:53:56;;;;;;;12.70;3.88;;;;;;;3.50;82.54;97589.31;6189852;23;20135;-84
2021/12/05 10:56:29;;;;;;;8.90;3.15;;;;;;;3.57;82.62;97581.25;6179627;23;20335;-84
2021/12/05 10:59:10;;;;;;;8.82;2.35;;;;;;;3.50;82.88;97570.84;6188111;23;20343;-84
2021/12/05 11:01:42;;;;;;;2.72;2.20;;;;;;;3.52;82.68;97566.13;6186944;23;20009;-84
2021/12/05 11:04:10;;;;;;;10.20;3.42;;;;;;;3.75;83.06;97592.44;6185826;23;20012;-83
2021/12/05 11:06:51;;;;;;;3.67;2.78;;;;;;;3.65;82.61;97565.03;6189200;23;20020;-83
2021/12/05 11:09:37;;;;;;;7.00;2.17;;;;;;;3.92;82.77;97589.03;6164231;23;20108;-83
2021/12/05 11:12:14;;;;;;;8.80;2.30;;;;;;;3.90;82.21;97581.34;6186012;23;20013;-84
2021/12/05 11:14:44;;;;;;;7.15;2.35;;;;;;;4.09;82.43;97588.03;6187329;23;20009;-84
2021/12/05 11:17:39;;;;;;;7.32;2.47;;;;;;;4.16;81.91;97587.88;6186866;23;20075;-84
2021/12/05 11:20:09;;;;;;;6.90;2.92;;;;;;;4.24;81.50;97582.19;6183409;23;20009;-84
2021/12/05 11:22:46;;;;;;;4.38;2.03;;;;;;;4.30;81.15;97587.31;6188811;23;20057;-84
2021/12/05 11:25:15;;;;;;;7.18;2.33;;;;;;;4.34;80.61;97583.19;6188148;23;20503;-84
2021/12/05 11:27:43;;;;;;;5.28;2.67;;;;;;;4.39;80.62;97585.88;6162233;23;20001;-84
2021/12/05 11:30:15;;;;;;;9.45;2.15;;;;;;;4.42;80.20;97590.69;6164180;23;20025;-84
2021/12/05 11:32:53;;;;;;;10.43;3.03;;;;;;;4.37;80.04;97584.50;6191390;23;20032;-84
2021/12/05 11:35:31;;;;;;;9.90;2.33;;;;;;;4.50;79.97;97594.75;6191850;23;20364;-84
2021/12/05 11:38:19;;;;;;;12.18;2.92;;;;;;;4.51;79.71;97597.19;6189305;23;20009;-84
2021/12/05 11:40:53;;;;;;;6.70;2.78;;;;;;;4.53;79.63;97589.81;6190168;23;20005;-83
2021/12/05 11:43:22;;;;;;;6.50;3.00;;;;;;;4.54;79.28;97591.41;6189988;23;20325;-84
2021/12/05 11:45:58;;;;;;;14.77;4.05;;;;;;;4.56;79.26;97588.53;6214869;23;20116;-84
2021/12/05 11:48:29;;;;;;;;;;;;;;;4.54;79.01;97588.00;6191700;23;20009;-84
2021/12/05 11:50:55;;;;;;;19.08;11.25;;;;;;;4.56;79.29;97593.81;6189581;23;19923;-84
2021/12/05 11:53:43;;;;;;;17.50;15.13;;;;;;;4.57;79.27;97595.41;6188926;23;20009;-84
2021/12/05 11:56:15;;;;;;;14.93;13.15;;;;;;;4.55;78.77;97585.09;6163875;23;20019;-84
2021/12/05 11:58:42;;;;;;;22.73;12.20;;;;;;;4.66;79.11;97598.44;6191060;23;20032;-84
2021/12/05 12:01:13;;;;;;;16.25;12.07;;;;;;;4.53;78.75;97583.72;6205651;23;19997;-84
2021/12/05 12:03:41;;;;;;;11.93;8.82;;;;;;;4.64;78.27;97589.97;6176887;23;20096;-84
2021/12/05 12:06:08;;;;;;;13.20;9.52;;;;;;;4.71;78.23;97588.78;6199598;23;20125;-84
2021/12/05 12:08:34;;;;;;;8.52;7.30;;;;;;;4.74;77.99;97590.13;6172078;23;20383;-84
2021/12/05 12:11:01;;;;;;;10.00;6.57;;;;;;;4.62;77.71;97582.28;6196076;23;20511;-84
2021/12/05 12:13:35;;;;;;;11.00;7.85;;;;;;;4.75;77.57;97597.00;6195378;23;20403;-82
2021/12/05 12:16:07;;;;;;;12.07;6.80;;;;;;;4.79;78.05;97595.47;6169870;23;20054;-84
2021/12/05 12:18:38;;;;;;;11.00;6.43;;;;;;;4.74;78.00;97587.50;6193633;23;20066;-84
2021/12/05 12:21:11;;;;;;;10.65;7.25;;;;;;;4.82;77.90;97593.16;6162153;23;20016;-84
2021/12/05 12:23:36;;;;;;;11.93;5.82;;;;;;;4.71;78.15;97575.56;6162147;23;20028;-83
2021/12/05 12:26:06;;;;;;;10.15;5.53;;;;;;;4.74;78.73;97575.06;6161052;23;20001;-84
2021/12/05 12:28:32;;;;;;;11.73;6.13;;;;;;;4.84;78.50;97591.09;6161245;23;20016;-83
2021/12/05 12:31:11;;;;;;;5.35;4.85;;;;;;;4.86;78.39;97588.19;6185254;23;20482;-85
2021/12/05 12:34:05;;;;;;;16.85;5.63;;;;;;;4.81;78.79;97591.56;6186751;23;20007;-84
2021/12/05 12:36:44;;;;;;;11.50;5.38;;;;;;;4.85;78.49;97597.19;6181922;23;20008;-85
2021/12/05 12:39:15;;;;;;;8.50;4.95;;;;;;;4.85;78.65;97595.31;6186239;23;20340;-84
2021/12/05 12:41:41;;;;;;;9.48;5.00;;;;;;;4.80;78.42;97592.63;6184535;23;20321;-85
2021/12/05 12:44:07;;;;;;;11.75;5.20;;;;;;;4.72;77.36;97571.09;6186928;23;20009;-85
2021/12/05 12:46:41;;;;;;;16.13;5.55;;;;;;;4.86;77.78;97593.47;6187507;23;20009;-85
2021/12/05 12:49:16;;;;;;;13.82;5.15;;;;;;;4.91;77.79;97601.50;6187275;23;20001;-84
2021/12/05 12:51:44;;;;;;;12.90;5.30;;;;;;;4.91;77.74;97604.13;6190043;23;20005;-84
2021/12/05 12:54:17;;;;;;;11.57;4.95;;;;;;;4.85;77.78;97597.19;6190555;23;20008;-84
2021/12/05 12:57:05;;;;;;;10.57;4.03;;;;;;;4.90;77.78;97603.31;6187693;23;20020;-85
2021/12/05 12:59:35;;;;;;;8.18;4.20;;;;;;;4.88;77.87;97607.25;6165025;23;20013;-83
2021/12/05 13:10:35;;;;;;;12.60;5.47;;;;;;;4.76;77.31;97602.03;6189664;23;20019;-83
2021/12/05 13:13:25;;;;;;;12.23;5.20;;;;;;;4.77;77.38;97600.22;6188102;23;20009;-84
2021/12/05 13:15:53;;;;;;;10.40;5.43;;;;;;;4.76;77.02;97601.25;6187677;23;19997;-83
2021/12/05 13:18:31;;;;;;;8.93;4.80;;;;;;;4.61;76.79;97590.47;6163302;23;20017;-83
2021/12/05 13:21:11;;;;;;;12.77;5.38;;;;;;;4.74;77.08;97611.28;6188957;23;20016;-84
2021/12/05 13:23:50;;;;;;;9.20;4.80;;;;;;;4.54;77.69;97585.34;6187177;23;20459;-84
2021/12/05 13:26:27;;;;;;;12.45;4.97;;;;;;;4.78;78.21;97637.00;6163716;23;20020;-84
2021/12/05 13:29:10;;;;;;;11.88;4.80;;;;;;;4.77;78.55;97632.72;6185241;23;20072;-84
2021/12/05 13:31:43;;;;;;;13.13;4.97;;;;;;;4.79;78.29;97635.13;6188232;23;20340;-84
2021/12/05 13:34:25;;;;;;;11.50;3.63;;;;;;;4.78;77.93;97631.72;6186424;23;20080;-84
2021/12/05 13:37:09;;;;;;;11.30;4.65;;;;;;;4.78;77.71;97633.53;6189582;23;20418;-85
2021/12/05 13:39:40;;;;;;;8.27;4.63;;;;;;;4.78;77.56;97628.25;6209095;23;20005;-85
2021/12/05 13:42:23;;;;;;;5.93;3.58;;;;;;;4.78;77.44;97638.81;6228488;23;20009;-85
2021/12/05 13:45:00;;;;;;;7.63;3.60;;;;;;;4.79;78.15;97633.28;6204402;23;20012;-82
2021/12/05 13:47:31;;;;;;;11.35;3.92;;;;;;;4.81;77.92;97633.03;6203430;23;20008;-83
2021/12/05 13:50:19;;;;;;;7.75;3.85;;;;;;;4.80;77.60;97636.75;6196317;23;20047;-80
2021/12/05 13:52:52;;;;;;;6.60;4.07;;;;;;;4.60;78.07;97604.72;6191988;23;20576;-81
2021/12/05 13:55:39;;;;;;;10.70;4.75;;;;;;;4.77;77.77;97647.78;6191149;23;20407;-83
2021/12/05 13:58:53;;;;;;;6.88;4.57;;;;;;;4.76;78.16;97649.63;6188504;23;20051;-80
2021/12/05 14:01:26;;;;;;;7.82;4.28;;;;;;;4.76;78.28;97649.63;6190780;23;20000;-80
2021/12/05 14:04:13;;;;;;;10.60;4.22;;;;;;;4.76;78.27;97656.78;6199013;23;20013;-87
2021/12/05 14:06:44;;;;;;;5.53;3.63;;;;;;;4.75;78.88;97661.25;6196788;23;20024;-85
2021/12/05 14:09:15;;;;;;;6.75;4.55;;;;;;;4.75;78.72;97660.44;6185476;23;20012;-86
2021/12/05 14:12:09;;;;;;;11.38;4.32;;;;;;;4.68;78.76;97651.84;6185992;23;20015;-84
2021/12/05 14:14:38;;;;;;;8.63;4.07;;;;;;;4.73;78.43;97668.63;6145445;23;20047;-85
2021/12/05 14:17:09;;;;;;;10.73;3.15;;;;;;;4.74;78.38;97669.44;6216410;23;20080;-84
2021/12/05 14:19:37;;;;;;;9.32;3.53;;;;;;;4.76;78.23;97678.69;6190881;23;20005;-84
2021/12/05 14:22:05;;;;;;;9.57;3.53;;;;;;;4.77;78.86;97679.50;6214372;23;20008;-84
2021/12/05 14:24:35;;;;;;;10.43;4.00;;;;;;;4.74;78.85;97686.06;6190850;23;20005;-84
2021/12/05 14:27:05;;;;;;;7.55;3.53;;;;;;;4.65;78.57;97684.06;6192002;23;20024;-84
2021/12/05 14:29:33;;;;;;;8.65;3.15;;;;;;;4.69;78.86;97685.19;6191546;23;20012;-84
2021/12/05 14:32:07;;;;;;;4.35;3.28;;;;;;;4.75;78.84;97698.25;6168118;23;20357;-84
2021/12/05 14:34:34;;;;;;;6.57;2.60;;;;;;;4.54;79.38;97675.94;6216932;23;20001;-84
2021/12/05 14:37:01;;;;;;;5.75;2.92;;;;;;;4.06;78.87;97609.63;6192433;23;20193;-83
2021/12/05 14:39:41;;;;;;;8.57;2.90;;;;;;;4.49;79.86;97688.28;6187041;23;20005;-85
2021/12/05 14:42:16;;;;;;;5.43;3.10;;;;;;;4.54;79.33;97702.38;6188049;23;20083;-85
2021/12/05 14:44:44;;;;;;;11.68;3.65;;;;;;;4.52;79.32;97712.38;6210657;23;20011;-85
2021/12/05 14:47:12;;;;;;;8.93;3.47;;;;;;;4.56;79.24;97726.72;6186578;23;20009;-85
2021/12/05 14:49:41;;;;;;;4.78;2.60;;;;;;;4.50;79.50;97719.75;6183788;23;20017;-84
2021/12/05 14:52:11;;;;;;;6.32;2.47;;;;;;;4.61;79.62;97741.09;6182208;23;20156;-85
2021/12/05 14:54:39;;;;;;;5.05;2.75;;;;;;;4.50;79.65;97732.94;6182386;23;20416;-85
2021/12/05 14:57:07;;;;;;;9.75;4.57;;;;;;;4.45;79.91;97724.16;6158732;23;20009;-85
2021/12/05 14:59:33;;;;;;;6.68;2.92;;;;;;;4.40;79.72;97724.84;6183643;23;20013;-85
2021/12/05 15:01:59;;;;;;;6.97;3.55;;;;;;;4.53;79.61;97750.19;6158311;23;20348;-85
2021/12/05 15:04:29;;;;;;;9.90;3.30;;;;;;;4.51;79.86;97761.00;6209978;23;20270;-84
2021/12/05 15:06:56;;;;;;;6.90;3.50;;;;;;;4.50;79.97;97759.38;6184872;23;20013;-85
2021/12/05 15:09:30;;;;;;;6.30;3.15;;;;;;;4.47;79.73;97766.97;6158877;23;20459;-85
2021/12/05 15:12:00;;;;;;;9.98;3.95;;;;;;;4.46;79.55;97766.16;6184538;23;20004;-85
2021/12/05 15:14:28;;;;;;;9.13;4.57;;;;;;;4.46;79.65;97762.72;6159472;23;20019;-85
2021/12/05 15:17:10;;;;;;;7.95;4.85;;;;;;;4.35;79.42;97759.09;6183060;23;20012;-85
2021/12/05 15:19:39;;;;;;;8.77;5.10;;;;;;;4.25;79.47;97755.47;6183654;23;20036;-85
2021/12/05 15:22:07;;;;;;;8.27;4.75;;;;;;;4.40;79.47;97776.88;6183821;23;20606;-85
2021/12/05 15:24:33;;;;;;;13.10;5.05;;;;;;;4.39;79.82;97786.63;6183495;23;20009;-85
2021/12/05 15:27:01;;;;;;;6.97;4.07;;;;;;;4.03;79.97;97736.00;6184707;23;20013;-85
2021/12/05 15:29:28;;;;;;;9.25;4.47;;;;;;;4.36;79.71;97791.59;6184568;23;20031;-85
2021/12/05 15:31:55;;;;;;;7.43;4.72;;;;;;;4.34;79.85;97791.84;6184270;23;20009;-85
2021/12/05 15:34:28;;;;;;;9.40;4.95;;;;;;;4.21;79.99;97775.44;6159501;23;20440;-85
2021/12/05 15:36:55;;;;;;;9.50;5.50;;;;;;;4.34;79.92;97793.66;6186676;23;20003;-85
2021/12/05 15:39:27;;;;;;;8.68;4.57;;;;;;;4.31;79.80;97794.94;6162323;23;20008;-85
2021/12/05 15:41:55;;;;;;;6.38;4.20;;;;;;;4.31;79.81;97808.13;6188800;23;20009;-85
2021/12/05 15:44:34;;;;;;;6.70;4.40;;;;;;;4.28;80.02;97803.31;6190118;23;20002;-85
2021/12/05 15:47:03;;;;;;;9.50;4.50;;;;;;;4.27;79.82;97809.66;6163574;23;20348;-85
2021/12/05 15:49:50;;;;;;;9.35;4.18;;;;;;;4.19;80.15;97788.91;6184200;23;20017;-85
2021/12/05 15:52:20;;;;;;;8.55;4.82;;;;;;;4.11;80.38;97786.59;6162635;23;20455;-85
2021/12/05 15:54:47;;;;;;;8.85;4.45;;;;;;;4.23;80.23;97820.91;6161651;23;20013;-85
2021/12/05 15:57:20;;;;;;;9.98;4.80;;;;;;;4.14;80.34;97814.38;6161593;23;20428;-85
2021/12/05 15:59:47;;;;;;;5.97;3.80;;;;;;;4.16;80.39;97817.59;6158660;23;20013;-85
2021/12/05 16:02:17;;;;;;;11.55;5.10;;;;;;;4.17;80.51;97822.63;6158891;23;20352;-84
2021/12/05 16:04:45;;;;;;;10.80;4.32;;;;;;;4.09;79.85;97807.16;6134206;23;20013;-84
2021/12/05 16:07:11;;;;;;;8.77;5.80;;;;;;;3.96;80.03;97796.84;6132731;23;20009;-85
2021/12/05 16:09:42;;;;;;;8.15;5.15;;;;;;;3.77;80.38;97769.00;6134328;23;20052;-84
2021/12/05 16:12:14;;;;;;;8.85;5.32;;;;;;;4.11;80.69;97825.41;6133360;23;20436;-85
2021/12/05 16:14:42;;;;;;;6.65;4.82;;;;;;;3.99;80.25;97814.88;6158889;23;20008;-85
2021/12/05 16:17:20;;;;;;;11.00;5.00;;;;;;;4.11;80.42;97828.03;6184721;23;20447;-85
2021/12/05 16:20:13;;;;;;;8.35;4.72;;;;;;;4.09;80.25;97830.91;6160526;23;20348;-84
2021/12/05 16:23:04;;;;;;;7.03;5.00;;;;;;;4.06;80.37;97836.69;6134584;23;20095;-85
2021/12/05 16:25:29;;;;;;;7.55;4.63;;;;;;;4.04;80.79;97843.22;6159949;23;20008;-84
2021/12/05 16:28:02;;;;;;;6.90;4.95;;;;;;;3.79;80.49;97809.16;6135692;23;20467;-84
2021/12/05 16:30:44;;;;;;;11.85;4.72;;;;;;;3.99;80.49;97843.91;6136565;23;20418;-85
2021/12/05 16:33:23;;;;;;;8.50;3.85;;;;;;;3.99;80.32;97845.75;6136903;23;20017;-90
2021/12/05 16:35:51;;;;;;;8.57;4.68;;;;;;;3.96;80.48;97844.34;6139575;23;20398;-85
2021/12/05 16:38:32;;;;;;;6.95;3.63;;;;;;;3.51;80.61;97780.81;6146569;23;20069;-86
2021/12/05 16:41:03;;;;;;;6.07;3.35;;;;;;;3.80;80.58;97837.13;6169899;23;20005;-85
2021/12/05 16:43:32;;;;;;;10.20;3.72;;;;;;;3.91;80.62;97852.16;6185632;23;20099;-87
2021/12/05 16:46:15;;;;;;;4.88;3.60;;;;;;;3.90;80.73;97861.13;6159406;23;20009;-87
2021/12/05 16:48:45;;;;;;;9.10;4.10;;;;;;;3.88;80.55;97863.19;6162288;23;20756;-86
2021/12/05 16:51:10;;;;;;;4.93;3.33;;;;;;;3.86;80.87;97856.53;6164008;23;20098;-86
2021/12/05 16:53:43;;;;;;;8.80;4.72;;;;;;;3.87;80.72;97861.56;6165180;23;20005;-86
2021/12/05 16:56:11;;;;;;;5.93;4.80;;;;;;;3.83;80.62;97854.34;6154584;23;20071;-86
2021/12/05 16:58:47;;;;;;;7.90;6.07;;;;;;;3.27;80.74;97773.13;6188633;23;20226;-86
2021/12/05 17:01:16;;;;;;;15.55;6.20;;;;;;;3.67;80.73;97838.16;6213974;23;20503;-86
2021/12/05 17:03:46;;;;;;;8.07;5.60;;;;;;;3.87;80.83;97871.34;6188243;23;20004;-86
2021/12/05 17:27:30;;;;;;;8.32;4.97;;;;;;;3.74;81.27;97896.91;6066335;23;20066;-86
2021/12/05 17:51:05;;;;;;;8.40;4.97;;;;;;;3.68;81.77;97932.13;6086711;23;20069;-89
2021/12/05 18:07:59;;;;;;;10.68;7.85;;;;;;;3.65;81.56;97937.03;6036729;23;20030;-87
2021/12/05 18:18:31;;;;;;;14.52;7.53;;;;;;;3.61;81.48;97946.44;5895034;24;20028;-87
2021/12/05 18:21:57;;;;;;;16.88;10.05;;;;;;;3.61;81.72;97960.44;5858029;24;20590;-87
2021/12/05 18:32:10;;;;;;;14.23;7.95;;;;;;;3.07;81.79;97885.97;5868307;24;20523;-87
2021/12/05 18:34:35;;;;;;;15.95;7.78;;;;;;;3.39;81.40;97942.72;5890509;24;20020;-83
2021/12/05 18:37:08;;;;;;;13.93;7.65;;;;;;;3.59;81.53;97966.97;5971170;23;20463;-78
2021/12/05 18:39:41;;;;;;;14.10;8.38;;;;;;;3.56;81.42;97968.22;6111500;23;20088;-82
2021/12/05 18:42:09;;;;;;;13.60;8.10;;;;;;;3.39;81.04;97943.50;6130324;23;20084;-83